createdAt,value
2023-02-03T00:00:10.741Z,1004.26
2023-02-03T00:01:10.782Z,1004.28
2023-02-03T00:02:10.788Z,1004.26
2023-02-03T00:03:10.739Z,1004.21
2023-02-03T00:04:10.713Z,1004.20
2023-02-03T00:05:10.708Z,1004.28
2023-02-03T00:06:10.726Z,1004.28
2023-02-03T00:07:11.165Z,1004.35
2023-02-03T00:08:11.693Z,1004.37
2023-02-03T00:09:10.655Z,1004.38
2023-02-03T00:10:10.675Z,1004.39
2023-02-03T00:11:10.648Z,1004.40
2023-02-03T00:12:10.633Z,1004.44
2023-02-03T00:13:10.678Z,1004.47
2023-02-03T00:14:10.601Z,1004.46
2023-02-03T00:15:10.615Z,1004.39
2023-02-03T00:16:10.603Z,1004.36
2023-02-03T00:17:10.573Z,1004.30
2023-02-03T00:18:10.602Z,1004.29
2023-02-03T00:19:10.643Z,1004.25
2023-02-03T00:20:10.615Z,1004.20
2023-02-03T00:21:10.550Z,1004.14
2023-02-03T00:22:10.535Z,1004.10
2023-02-03T00:23:10.557Z,1004.12
2023-02-03T00:24:10.516Z,1004.11
2023-02-03T00:25:10.578Z,1004.06
2023-02-03T00:26:10.549Z,1004.02
2023-02-03T00:27:10.498Z,1003.99
2023-02-03T00:28:10.545Z,1003.94
2023-02-03T00:29:10.514Z,1003.92
2023-02-03T00:30:10.537Z,1003.87
2023-02-03T00:31:10.577Z,1003.78
2023-02-03T00:32:10.657Z,1003.68
2023-02-03T00:33:10.613Z,1003.61
2023-02-03T00:34:10.508Z,1003.53
2023-02-03T00:35:10.439Z,1003.50
2023-02-03T00:36:10.485Z,1003.53
2023-02-03T00:37:10.534Z,1003.57
2023-02-03T00:38:10.429Z,1003.64
2023-02-03T00:39:10.422Z,1003.67
2023-02-03T00:40:10.423Z,1003.68
2023-02-03T00:41:10.426Z,1003.76
2023-02-03T00:42:10.411Z,1003.74
2023-02-03T00:43:10.507Z,1003.67
2023-02-03T00:44:10.429Z,1003.55
2023-02-03T00:45:10.429Z,1003.47
2023-02-03T00:46:10.429Z,1003.43
2023-02-03T00:47:10.376Z,1003.42
2023-02-03T00:48:10.357Z,1003.41
2023-02-03T00:49:10.392Z,1003.43
2023-02-03T00:50:10.348Z,1003.48
2023-02-03T00:51:10.370Z,1003.51
2023-02-03T00:52:10.336Z,1003.52
2023-02-03T00:53:10.326Z,1003.51
2023-02-03T00:54:10.336Z,1003.49
2023-02-03T00:55:10.357Z,1003.52
2023-02-03T00:56:10.300Z,1003.53
2023-02-03T00:57:10.300Z,1003.52
2023-02-03T00:58:10.322Z,1003.51
2023-02-03T00:59:10.295Z,1003.52
2023-02-03T01:00:10.287Z,1003.52
2023-02-03T01:01:10.439Z,1003.50
2023-02-03T01:02:10.354Z,1003.47
2023-02-03T01:03:10.265Z,1003.42
2023-02-03T01:04:10.273Z,1003.43
2023-02-03T01:05:10.238Z,1003.46
2023-02-03T01:06:10.238Z,1003.44
2023-02-03T01:07:10.774Z,1003.42
2023-02-03T01:08:10.223Z,1003.39
2023-02-03T01:09:10.222Z,1003.39
2023-02-03T01:10:10.223Z,1003.36
2023-02-03T01:11:10.205Z,1003.37
2023-02-03T01:12:10.186Z,1003.35
2023-02-03T01:13:10.257Z,1003.37
2023-02-03T01:14:10.176Z,1003.39
2023-02-03T01:15:10.202Z,1003.40
2023-02-03T01:16:10.197Z,1003.38
2023-02-03T01:17:10.150Z,1003.37
2023-02-03T01:18:10.166Z,1003.38
2023-02-03T01:19:10.182Z,1003.38
2023-02-03T01:20:10.165Z,1003.32
2023-02-03T01:21:10.144Z,1003.32
2023-02-03T01:22:10.097Z,1003.33
2023-02-03T01:23:10.121Z,1003.36
2023-02-03T01:24:10.117Z,1003.38
2023-02-03T01:25:10.149Z,1003.38
2023-02-03T01:26:10.084Z,1003.41
2023-02-03T01:27:10.078Z,1003.40
2023-02-03T01:28:10.128Z,1003.39
2023-02-03T01:29:10.062Z,1003.37
2023-02-03T01:30:10.052Z,1003.38
2023-02-03T01:31:10.238Z,1003.39
2023-02-03T01:32:10.063Z,1003.41
2023-02-03T01:33:10.070Z,1003.37
2023-02-03T01:34:10.056Z,1003.34
2023-02-03T01:35:10.041Z,1003.34
2023-02-03T01:36:10.037Z,1003.39
2023-02-03T01:37:10.089Z,1003.41
2023-02-03T01:38:09.996Z,1003.38
2023-02-03T01:39:10.042Z,1003.39
2023-02-03T01:40:10.024Z,1003.35
2023-02-03T01:41:09.998Z,1003.30
2023-02-03T01:42:10.067Z,1003.28
2023-02-03T01:43:10.032Z,1003.27
2023-02-03T01:44:09.983Z,1003.28
2023-02-03T01:45:11.901Z,1003.27
2023-02-03T01:46:10.004Z,1003.28
2023-02-03T01:47:09.946Z,1003.32
2023-02-03T01:48:09.949Z,1003.34
2023-02-03T01:49:09.961Z,1003.33
2023-02-03T01:50:09.936Z,1003.37
2023-02-03T01:51:09.922Z,1003.36
2023-02-03T01:52:09.905Z,1003.34
2023-02-03T01:53:09.885Z,1003.37
2023-02-03T01:54:09.910Z,1003.34
2023-02-03T01:55:09.933Z,1003.35
2023-02-03T01:56:09.889Z,1003.36
2023-02-03T01:57:09.850Z,1003.35
2023-02-03T01:58:09.857Z,1003.39
2023-02-03T01:59:09.868Z,1003.44
2023-02-03T02:00:09.859Z,1003.46
2023-02-03T02:01:09.876Z,1003.45
2023-02-03T02:02:09.846Z,1003.49
2023-02-03T02:03:09.831Z,1003.54
2023-02-03T02:04:09.811Z,1003.56
2023-02-03T02:05:09.802Z,1003.55
2023-02-03T02:06:09.798Z,1003.52
2023-02-03T02:07:09.857Z,1003.46
2023-02-03T02:08:09.804Z,1003.40
2023-02-03T02:09:09.772Z,1003.38
2023-02-03T02:10:09.766Z,1003.28
2023-02-03T02:11:09.776Z,1003.29
2023-02-03T02:12:09.769Z,1003.35
2023-02-03T02:13:10.104Z,1003.43
2023-02-03T02:14:09.739Z,1003.50
2023-02-03T02:15:09.773Z,1003.49
2023-02-03T02:16:09.786Z,1003.48
2023-02-03T02:17:09.737Z,1003.48
2023-02-03T02:18:09.719Z,1003.45
2023-02-03T02:19:09.780Z,1003.43
2023-02-03T02:20:09.714Z,1003.39
2023-02-03T02:21:09.717Z,1003.38
2023-02-03T02:22:09.691Z,1003.39
2023-02-03T02:23:09.667Z,1003.40
2023-02-03T02:24:09.681Z,1003.37
2023-02-03T02:25:09.711Z,1003.43
2023-02-03T02:26:09.659Z,1003.47
2023-02-03T02:27:09.638Z,1003.48
2023-02-03T02:28:09.760Z,1003.54
2023-02-03T02:29:09.617Z,1003.55
2023-02-03T02:30:09.632Z,1003.52
2023-02-03T02:31:09.728Z,1003.56
2023-02-03T02:32:09.600Z,1003.48
2023-02-03T02:33:09.596Z,1003.50
2023-02-03T02:34:09.606Z,1003.44
2023-02-03T02:35:09.598Z,1003.37
2023-02-03T02:36:09.629Z,1003.35
2023-02-03T02:37:09.649Z,1003.29
2023-02-03T02:38:09.577Z,1003.36
2023-02-03T02:39:09.554Z,1003.38
2023-02-03T02:40:09.568Z,1003.39
2023-02-03T02:41:09.542Z,1003.35
2023-02-03T02:42:09.526Z,1003.33
2023-02-03T02:43:09.580Z,1003.33
2023-02-03T02:44:09.539Z,1003.34
2023-02-03T02:45:09.708Z,1003.35
2023-02-03T02:46:09.584Z,1003.37
2023-02-03T02:47:09.506Z,1003.43
2023-02-03T02:48:09.492Z,1003.47
2023-02-03T02:49:09.566Z,1003.41
2023-02-03T02:50:09.537Z,1003.51
2023-02-03T02:51:09.490Z,1003.52
2023-02-03T02:52:09.518Z,1003.47
2023-02-03T02:53:09.545Z,1003.51
2023-02-03T02:54:09.454Z,1003.51
2023-02-03T02:55:09.533Z,1003.46
2023-02-03T02:56:11.540Z,1003.36
2023-02-03T02:57:09.466Z,1003.26
2023-02-03T02:58:09.432Z,1003.17
2023-02-03T02:59:09.442Z,1003.18
2023-02-03T03:00:09.437Z,1003.17
2023-02-03T03:01:09.504Z,1003.16
2023-02-03T03:02:09.399Z,1003.18
2023-02-03T03:03:09.455Z,1003.24
2023-02-03T03:04:09.387Z,1003.31
2023-02-03T03:05:09.455Z,1003.38
2023-02-03T03:06:09.377Z,1003.34
2023-02-03T03:07:09.408Z,1003.21
2023-02-03T03:08:09.374Z,1003.15
2023-02-03T03:09:09.364Z,1003.01
2023-02-03T03:10:09.344Z,1002.97
2023-02-03T03:11:09.343Z,1002.95
2023-02-03T03:12:09.338Z,1002.90
2023-02-03T03:13:09.758Z,1002.93
2023-02-03T03:14:09.305Z,1002.92
2023-02-03T03:15:09.337Z,1002.90
2023-02-03T03:16:09.373Z,1002.86
2023-02-03T03:17:09.282Z,1002.84
2023-02-03T03:18:09.311Z,1002.90
2023-02-03T03:19:09.314Z,1002.88
2023-02-03T03:20:09.257Z,1002.89
2023-02-03T03:21:09.264Z,1002.89
2023-02-03T03:22:09.278Z,1002.88
2023-02-03T03:23:09.277Z,1002.90
2023-02-03T03:24:09.259Z,1002.91
2023-02-03T03:25:09.299Z,1002.88
2023-02-03T03:26:09.216Z,1002.80
2023-02-03T03:27:09.251Z,1002.80
2023-02-03T03:28:09.282Z,1002.82
2023-02-03T03:29:09.212Z,1002.86
2023-02-03T03:30:09.312Z,1002.97
2023-02-03T03:31:09.343Z,1003.02
2023-02-03T03:32:09.197Z,1003.08
2023-02-03T03:33:09.189Z,1003.08
2023-02-03T03:34:09.179Z,1003.04
2023-02-03T03:35:09.192Z,1002.92
2023-02-03T03:36:09.178Z,1002.79
2023-02-03T03:37:09.201Z,1002.78
2023-02-03T03:38:09.158Z,1002.78
2023-02-03T03:39:09.155Z,1002.79
2023-02-03T03:40:09.116Z,1002.81
2023-02-03T03:41:09.117Z,1002.86
2023-02-03T03:42:09.089Z,1002.80
2023-02-03T03:43:09.239Z,1002.81
2023-02-03T03:44:09.119Z,1002.85
2023-02-03T03:45:09.094Z,1002.89
2023-02-03T03:46:09.087Z,1003.08
2023-02-03T03:47:09.087Z,1003.16
2023-02-03T03:48:09.073Z,1003.20
2023-02-03T03:49:09.136Z,1003.23
2023-02-03T03:50:09.067Z,1003.32
2023-02-03T03:51:09.060Z,1003.34
2023-02-03T03:52:09.044Z,1003.30
2023-02-03T03:53:09.054Z,1003.35
2023-02-03T03:54:09.063Z,1003.35
2023-02-03T03:55:09.061Z,1003.32
2023-02-03T03:56:09.022Z,1003.26
2023-02-03T03:57:09.016Z,1003.18
2023-02-03T03:58:09.006Z,1003.21
2023-02-03T03:59:08.979Z,1003.24
2023-02-03T04:00:08.988Z,1003.34
2023-02-03T04:01:09.056Z,1003.39
2023-02-03T04:02:09.090Z,1003.45
2023-02-03T04:03:09.055Z,1003.44
2023-02-03T04:04:08.947Z,1003.39
2023-02-03T04:05:08.956Z,1003.38
2023-02-03T04:06:08.964Z,1003.33
2023-02-03T04:07:08.990Z,1003.33
2023-02-03T04:08:08.918Z,1003.28
2023-02-03T04:09:08.925Z,1003.27
2023-02-03T04:10:08.893Z,1003.23
2023-02-03T04:11:08.897Z,1003.17
2023-02-03T04:12:08.901Z,1003.18
2023-02-03T04:13:08.924Z,1003.28
2023-02-03T04:14:08.889Z,1003.25
2023-02-03T04:15:08.866Z,1003.27
2023-02-03T04:16:08.922Z,1003.26
2023-02-03T04:17:08.864Z,1003.29
2023-02-03T04:18:08.858Z,1003.23
2023-02-03T04:19:09.193Z,1003.21
2023-02-03T04:20:08.832Z,1003.20
2023-02-03T04:21:08.831Z,1003.16
2023-02-03T04:22:08.852Z,1003.16
2023-02-03T04:23:08.815Z,1003.14
2023-02-03T04:24:08.822Z,1003.14
2023-02-03T04:25:08.876Z,1003.09
2023-02-03T04:26:08.775Z,1003.11
2023-02-03T04:27:08.787Z,1003.07
2023-02-03T04:28:08.832Z,1003.05
2023-02-03T04:29:08.774Z,1003.03
2023-02-03T04:30:08.760Z,1003.01
2023-02-03T04:31:08.933Z,1003.01
2023-02-03T04:32:08.789Z,1002.98
2023-02-03T04:33:08.734Z,1003.02
2023-02-03T04:34:08.717Z,1003.09
2023-02-03T04:35:08.711Z,1003.05
2023-02-03T04:36:08.706Z,1003.01
2023-02-03T04:37:08.745Z,1002.96
2023-02-03T04:38:08.691Z,1002.88
2023-02-03T04:39:08.692Z,1002.82
2023-02-03T04:40:08.682Z,1002.84
2023-02-03T04:41:08.689Z,1002.83
2023-02-03T04:42:08.663Z,1002.80
2023-02-03T04:43:08.744Z,1002.81
2023-02-03T04:44:08.640Z,1002.75
2023-02-03T04:45:08.650Z,1002.71
2023-02-03T04:46:08.684Z,1002.67
2023-02-03T04:47:08.621Z,1002.66
2023-02-03T04:48:08.648Z,1002.67
2023-02-03T04:49:08.673Z,1002.70
2023-02-03T04:50:08.625Z,1002.81
2023-02-03T04:51:08.596Z,1002.76
2023-02-03T04:52:08.596Z,1002.84
2023-02-03T04:53:08.605Z,1002.86
2023-02-03T04:54:08.575Z,1002.84
2023-02-03T04:55:08.644Z,1002.85
2023-02-03T04:56:08.549Z,1002.85
2023-02-03T04:57:08.543Z,1002.86
2023-02-03T04:58:08.564Z,1002.84
2023-02-03T04:59:08.521Z,1002.87
2023-02-03T05:00:08.548Z,1002.84
2023-02-03T05:01:08.620Z,1002.79
2023-02-03T05:02:08.552Z,1002.80
2023-02-03T05:03:08.582Z,1002.76
2023-02-03T05:04:08.503Z,1002.75
2023-02-03T05:05:08.525Z,1002.74
2023-02-03T05:06:08.496Z,1002.74
2023-02-03T05:07:08.513Z,1002.76
2023-02-03T05:08:08.494Z,1002.76
2023-02-03T05:09:08.463Z,1002.74
2023-02-03T05:10:08.470Z,1002.84
2023-02-03T05:11:08.471Z,1002.84
2023-02-03T05:12:08.456Z,1002.89
2023-02-03T05:13:08.506Z,1002.85
2023-02-03T05:14:08.417Z,1002.81
2023-02-03T05:15:08.422Z,1002.81
2023-02-03T05:16:08.469Z,1002.81
2023-02-03T05:17:08.410Z,1002.85
2023-02-03T05:18:08.403Z,1002.83
2023-02-03T05:19:08.926Z,1002.80
2023-02-03T05:20:08.386Z,1002.78
2023-02-03T05:21:08.365Z,1002.76
2023-02-03T05:22:08.373Z,1002.74
2023-02-03T05:23:08.406Z,1002.73
2023-02-03T05:24:08.361Z,1002.73
2023-02-03T05:25:08.412Z,1002.69
2023-02-03T05:26:08.356Z,1002.66
2023-02-03T05:27:08.368Z,1002.69
2023-02-03T05:28:08.407Z,1002.72
2023-02-03T05:29:08.324Z,1002.74
2023-02-03T05:30:08.286Z,1002.69
2023-02-03T05:31:08.383Z,1002.69
2023-02-03T05:32:08.383Z,1002.63
2023-02-03T05:33:08.300Z,1002.57
2023-02-03T05:34:08.297Z,1002.51
2023-02-03T05:35:08.259Z,1002.49
2023-02-03T05:36:08.262Z,1002.48
2023-02-03T05:37:08.306Z,1002.49
2023-02-03T05:38:08.271Z,1002.46
2023-02-03T05:39:08.234Z,1002.37
2023-02-03T05:40:08.211Z,1002.26
2023-02-03T05:41:08.221Z,1002.30
2023-02-03T05:42:08.223Z,1002.34
2023-02-03T05:43:08.270Z,1002.36
2023-02-03T05:44:08.222Z,1002.39
2023-02-03T05:45:08.230Z,1002.42
2023-02-03T05:46:08.301Z,1002.39
2023-02-03T05:47:08.187Z,1002.35
2023-02-03T05:48:08.187Z,1002.35
2023-02-03T05:49:08.198Z,1002.37
2023-02-03T05:50:08.223Z,1002.35
2023-02-03T05:51:08.154Z,1002.37
2023-02-03T05:52:08.142Z,1002.38
2023-02-03T05:53:08.158Z,1002.41
2023-02-03T05:54:08.137Z,1002.47
2023-02-03T05:55:08.173Z,1002.44
2023-02-03T05:56:08.113Z,1002.42
2023-02-03T05:57:08.112Z,1002.53
2023-02-03T05:58:08.125Z,1002.50
2023-02-03T05:59:08.104Z,1002.50
2023-02-03T06:00:08.093Z,1002.44
2023-02-03T06:01:08.102Z,1002.38
2023-02-03T06:02:08.085Z,1002.42
2023-02-03T06:03:08.090Z,1002.35
2023-02-03T06:04:08.166Z,1002.40
2023-02-03T06:05:08.047Z,1002.42
2023-02-03T06:06:08.056Z,1002.45
2023-02-03T06:07:08.085Z,1002.44
2023-02-03T06:08:08.047Z,1002.43
2023-02-03T06:09:08.021Z,1002.39
2023-02-03T06:10:08.020Z,1002.39
2023-02-03T06:11:07.994Z,1002.37
2023-02-03T06:12:08.006Z,1002.38
2023-02-03T06:13:08.070Z,1002.43
2023-02-03T06:14:08.031Z,1002.46
2023-02-03T06:15:07.979Z,1002.48
2023-02-03T06:16:07.956Z,1002.49
2023-02-03T06:17:07.932Z,1002.60
2023-02-03T06:18:07.964Z,1002.61
2023-02-03T06:19:08.014Z,1002.55
2023-02-03T06:20:07.917Z,1002.53
2023-02-03T06:21:07.934Z,1002.59
2023-02-03T06:22:09.005Z,1002.56
2023-02-03T06:23:07.939Z,1002.60
2023-02-03T06:24:07.913Z,1002.61
2023-02-03T06:25:08.442Z,1002.50
2023-02-03T06:26:07.867Z,1002.52
2023-02-03T06:27:07.896Z,1002.57
2023-02-03T06:28:09.480Z,1002.61
2023-02-03T06:29:07.855Z,1002.55
2023-02-03T06:30:07.851Z,1002.57
2023-02-03T06:31:08.040Z,1002.46
2023-02-03T06:32:07.862Z,1002.38
2023-02-03T06:33:07.848Z,1002.44
2023-02-03T06:34:07.835Z,1002.45
2023-02-03T06:35:07.850Z,1002.52
2023-02-03T06:36:07.821Z,1002.57
2023-02-03T06:37:07.867Z,1002.55
2023-02-03T06:38:07.798Z,1002.61
2023-02-03T06:39:07.796Z,1002.66
2023-02-03T06:40:07.792Z,1002.63
2023-02-03T06:41:07.818Z,1002.64
2023-02-03T06:42:07.766Z,1002.68
2023-02-03T06:43:07.826Z,1002.66
2023-02-03T06:44:07.779Z,1002.69
2023-02-03T06:45:07.749Z,1002.70
2023-02-03T06:46:07.774Z,1002.68
2023-02-03T06:47:07.739Z,1002.70
2023-02-03T06:48:07.750Z,1002.70
2023-02-03T06:49:07.783Z,1002.72
2023-02-03T06:50:07.690Z,1002.70
2023-02-03T06:51:07.681Z,1002.73
2023-02-03T06:52:07.693Z,1002.63
2023-02-03T06:53:07.684Z,1002.61
2023-02-03T06:54:07.652Z,1002.62
2023-02-03T06:55:07.727Z,1002.67
2023-02-03T06:56:07.647Z,1002.70
2023-02-03T06:57:07.676Z,1002.69
2023-02-03T06:58:07.652Z,1002.75
2023-02-03T06:59:07.652Z,1002.74
2023-02-03T07:00:07.656Z,1002.72
2023-02-03T07:01:07.714Z,1002.73
2023-02-03T07:02:07.622Z,1002.65
2023-02-03T07:03:07.619Z,1002.67
2023-02-03T07:04:07.608Z,1002.64
2023-02-03T07:05:07.600Z,1002.59
2023-02-03T07:06:07.589Z,1002.67
2023-02-03T07:07:07.636Z,1002.70
2023-02-03T07:08:07.571Z,1002.62
2023-02-03T07:09:07.574Z,1002.66
2023-02-03T07:10:07.545Z,1002.65
2023-02-03T07:11:07.560Z,1002.65
2023-02-03T07:12:07.539Z,1002.65
2023-02-03T07:13:07.623Z,1002.59
2023-02-03T07:14:07.534Z,1002.58
2023-02-03T07:15:07.539Z,1002.55
2023-02-03T07:16:07.585Z,1002.57
2023-02-03T07:17:07.540Z,1002.55
2023-02-03T07:18:07.512Z,1002.60
2023-02-03T07:19:07.572Z,1002.57
2023-02-03T07:20:07.495Z,1002.57
2023-02-03T07:21:07.496Z,1002.61
2023-02-03T07:22:07.499Z,1002.65
2023-02-03T07:23:07.480Z,1002.68
2023-02-03T07:24:07.486Z,1002.73
2023-02-03T07:25:07.517Z,1002.68
2023-02-03T07:26:07.457Z,1002.63
2023-02-03T07:27:07.429Z,1002.60
2023-02-03T07:28:07.483Z,1002.52
2023-02-03T07:29:07.437Z,1002.53
2023-02-03T07:30:07.432Z,1002.52
2023-02-03T07:31:07.834Z,1002.53
2023-02-03T07:32:07.523Z,1002.61
2023-02-03T07:33:07.392Z,1002.68
2023-02-03T07:34:07.418Z,1002.68
2023-02-03T07:35:07.383Z,1002.69
2023-02-03T07:36:07.395Z,1002.69
2023-02-03T07:37:07.418Z,1002.74
2023-02-03T07:38:07.363Z,1002.79
2023-02-03T07:39:07.376Z,1002.82
2023-02-03T07:40:07.338Z,1002.82
2023-02-03T07:41:07.375Z,1002.85
2023-02-03T07:42:07.355Z,1002.86
2023-02-03T07:43:07.379Z,1002.87
2023-02-03T07:44:07.365Z,1002.85
2023-02-03T07:45:07.313Z,1002.80
2023-02-03T07:46:07.382Z,1002.83
2023-02-03T07:47:07.305Z,1002.81
2023-02-03T07:48:07.296Z,1002.86
2023-02-03T07:49:07.328Z,1002.86
2023-02-03T07:50:07.320Z,1002.86
2023-02-03T07:51:07.258Z,1002.94
2023-02-03T07:52:07.254Z,1002.88
2023-02-03T07:53:07.269Z,1002.86
2023-02-03T07:54:07.244Z,1002.85
2023-02-03T07:55:07.302Z,1002.80
2023-02-03T07:56:07.217Z,1002.73
2023-02-03T07:57:07.220Z,1002.68
2023-02-03T07:58:07.224Z,1002.69
2023-02-03T07:59:07.224Z,1002.65
2023-02-03T08:00:07.186Z,1002.65
2023-02-03T08:01:07.218Z,1002.64
2023-02-03T08:02:07.185Z,1002.61
2023-02-03T08:03:07.187Z,1002.58
2023-02-03T08:04:07.163Z,1002.64
2023-02-03T08:05:07.170Z,1002.59
2023-02-03T08:06:07.156Z,1002.54
2023-02-03T08:07:07.274Z,1002.55
2023-02-03T08:08:07.118Z,1002.59
2023-02-03T08:09:07.121Z,1002.59
2023-02-03T08:10:07.100Z,1002.58
2023-02-03T08:11:07.117Z,1002.59
2023-02-03T08:12:07.116Z,1002.62
2023-02-03T08:13:07.154Z,1002.64
2023-02-03T08:14:07.098Z,1002.52
2023-02-03T08:15:07.096Z,1002.59
2023-02-03T08:16:07.089Z,1002.64
2023-02-03T08:17:07.139Z,1002.61
2023-02-03T08:18:07.059Z,1002.52
2023-02-03T08:19:07.121Z,1002.59
2023-02-03T08:20:07.055Z,1002.58
2023-02-03T08:21:07.052Z,1002.47
2023-02-03T08:22:07.048Z,1002.45
2023-02-03T08:23:07.036Z,1002.42
2023-02-03T08:24:07.024Z,1002.37
2023-02-03T08:25:07.045Z,1002.40
2023-02-03T08:26:06.990Z,1002.44
2023-02-03T08:27:06.997Z,1002.48
2023-02-03T08:28:07.057Z,1002.43
2023-02-03T08:29:06.978Z,1002.39
2023-02-03T08:30:06.986Z,1002.38
2023-02-03T08:31:07.110Z,1002.39
2023-02-03T08:32:07.011Z,1002.29
2023-02-03T08:33:06.933Z,1002.36
2023-02-03T08:34:06.942Z,1002.34
2023-02-03T08:35:06.950Z,1002.33
2023-02-03T08:36:06.938Z,1002.37
2023-02-03T08:37:07.265Z,1002.43
2023-02-03T08:38:07.003Z,1002.43
2023-02-03T08:39:06.906Z,1002.43
2023-02-03T08:40:06.950Z,1002.43
2023-02-03T08:41:06.889Z,1002.44
2023-02-03T08:42:06.884Z,1002.41
2023-02-03T08:43:06.997Z,1002.45
2023-02-03T08:44:06.858Z,1002.46
2023-02-03T08:45:06.863Z,1002.43
2023-02-03T08:46:06.957Z,1002.43
2023-02-03T08:47:06.829Z,1002.44
2023-02-03T08:48:06.849Z,1002.48
2023-02-03T08:49:06.879Z,1002.57
2023-02-03T08:50:06.872Z,1002.58
2023-02-03T08:51:06.835Z,1002.54
2023-02-03T08:52:06.886Z,1002.47
2023-02-03T08:53:06.797Z,1002.44
2023-02-03T08:54:06.818Z,1002.46
2023-02-03T08:55:06.834Z,1002.44
2023-02-03T08:56:06.803Z,1002.44
2023-02-03T08:57:06.803Z,1002.41
2023-02-03T08:58:06.794Z,1002.38
2023-02-03T08:59:06.777Z,1002.48
2023-02-03T09:00:06.774Z,1002.47
2023-02-03T09:01:06.853Z,1002.47
2023-02-03T09:02:06.791Z,1002.50
2023-02-03T09:03:06.768Z,1002.54
2023-02-03T09:04:06.734Z,1002.48
2023-02-03T09:05:06.782Z,1002.45
2023-02-03T09:06:06.707Z,1002.48
2023-02-03T09:07:06.765Z,1002.43
2023-02-03T09:08:06.692Z,1002.40
2023-02-03T09:09:06.728Z,1002.33
2023-02-03T09:10:06.773Z,1002.30
2023-02-03T09:11:06.665Z,1002.32
2023-02-03T09:12:06.661Z,1002.33
2023-02-03T09:13:06.702Z,1002.40
2023-02-03T09:14:07.450Z,1002.33
2023-02-03T09:15:06.668Z,1002.27
2023-02-03T09:16:06.692Z,1002.32
2023-02-03T09:17:06.632Z,1002.31
2023-02-03T09:18:06.608Z,1002.21
2023-02-03T09:19:06.680Z,1002.22
2023-02-03T09:20:06.668Z,1002.25
2023-02-03T09:21:06.600Z,1002.25
2023-02-03T09:22:06.582Z,1002.25
2023-02-03T09:23:06.610Z,1002.23
2023-02-03T09:24:06.579Z,1002.19
2023-02-03T09:25:06.632Z,1002.21
2023-02-03T09:26:06.592Z,1002.27
2023-02-03T09:27:06.564Z,1002.30
2023-02-03T09:28:06.599Z,1002.29
2023-02-03T09:29:06.528Z,1002.33
2023-02-03T09:30:06.529Z,1002.27
2023-02-03T09:31:06.637Z,1002.25
2023-02-03T09:32:06.569Z,1002.32
2023-02-03T09:33:06.510Z,1002.37
2023-02-03T09:34:06.566Z,1002.33
2023-02-03T09:35:06.490Z,1002.24
2023-02-03T09:36:06.495Z,1002.22
2023-02-03T09:37:06.924Z,1002.21
2023-02-03T09:38:06.481Z,1002.25
2023-02-03T09:39:06.489Z,1002.31
2023-02-03T09:40:06.470Z,1002.34
2023-02-03T09:41:11.532Z,1002.36
2023-02-03T09:42:07.475Z,1002.35
2023-02-03T09:43:06.595Z,1002.38
2023-02-03T09:44:06.439Z,1002.39
2023-02-03T09:45:06.435Z,1002.40
2023-02-03T09:46:06.468Z,1002.35
2023-02-03T09:47:08.226Z,1002.48
2023-02-03T09:48:06.497Z,1002.44
2023-02-03T09:49:06.483Z,1002.41
2023-02-03T09:50:06.508Z,1002.40
2023-02-03T09:51:06.401Z,1002.36
2023-02-03T09:52:06.385Z,1002.37
2023-02-03T09:53:06.444Z,1002.39
2023-02-03T09:54:06.452Z,1002.34
2023-02-03T09:55:06.448Z,1002.35
2023-02-03T09:56:06.329Z,1002.29
2023-02-03T09:57:07.711Z,1002.30
2023-02-03T09:58:06.347Z,1002.33
2023-02-03T09:59:06.356Z,1002.31
2023-02-03T10:00:06.301Z,1002.33
2023-02-03T10:01:06.461Z,1002.37
2023-02-03T10:02:06.335Z,1002.29
2023-02-03T10:03:06.283Z,1002.30
2023-02-03T10:04:06.289Z,1002.29
2023-02-03T10:05:06.337Z,1002.29
2023-02-03T10:06:06.297Z,1002.31
2023-02-03T10:07:06.389Z,1002.27
2023-02-03T10:08:06.254Z,1002.23
2023-02-03T10:09:06.274Z,1002.26
2023-02-03T10:10:06.227Z,1002.27
2023-02-03T10:11:06.220Z,1002.29
2023-02-03T10:12:06.218Z,1002.39
2023-02-03T10:13:06.383Z,1002.23
2023-02-03T10:14:06.223Z,1002.29
2023-02-03T10:15:06.262Z,1002.23
2023-02-03T10:16:06.266Z,1002.24
2023-02-03T10:17:06.306Z,1002.30
2023-02-03T10:18:06.190Z,1002.20
2023-02-03T10:19:06.259Z,1002.23
2023-02-03T10:20:06.240Z,1002.23
2023-02-03T10:21:06.165Z,1002.18
2023-02-03T10:22:06.175Z,1002.14
2023-02-03T10:23:06.148Z,1002.13
2023-02-03T10:24:06.131Z,1002.13
2023-02-03T10:25:06.169Z,1002.09
2023-02-03T10:26:06.154Z,1002.08
2023-02-03T10:27:06.210Z,1002.17
2023-02-03T10:28:06.147Z,1002.20
2023-02-03T10:29:06.105Z,1002.21
2023-02-03T10:30:06.105Z,1002.16
2023-02-03T10:31:06.247Z,1002.14
2023-02-03T10:32:06.301Z,1002.12
2023-02-03T10:33:06.054Z,1002.08
2023-02-03T10:34:06.058Z,1002.14
2023-02-03T10:35:06.057Z,1002.23
2023-02-03T10:36:06.042Z,1002.23
2023-02-03T10:37:06.289Z,1002.31
2023-02-03T10:38:06.048Z,1002.27
2023-02-03T10:39:06.043Z,1002.33
2023-02-03T10:40:06.019Z,1002.35
2023-02-03T10:41:06.071Z,1002.40
2023-02-03T10:42:06.036Z,1002.43
2023-02-03T10:43:06.110Z,1002.39
2023-02-03T10:44:05.983Z,1002.48
2023-02-03T10:45:06.060Z,1002.48
2023-02-03T10:46:06.019Z,1002.46
2023-02-03T10:47:05.985Z,1002.39
2023-02-03T10:48:05.988Z,1002.38
2023-02-03T10:49:06.108Z,1002.51
2023-02-03T10:50:05.943Z,1002.52
2023-02-03T10:51:06.042Z,1002.49
2023-02-03T10:52:06.001Z,1002.56
2023-02-03T10:53:05.935Z,1002.52
2023-02-03T10:54:05.930Z,1002.45
2023-02-03T10:55:06.073Z,1002.51
2023-02-03T10:56:05.962Z,1002.46
2023-02-03T10:57:05.918Z,1002.40
2023-02-03T10:58:05.897Z,1002.37
2023-02-03T10:59:05.883Z,1002.35
2023-02-03T11:00:05.896Z,1002.33
2023-02-03T11:01:06.147Z,1002.28
2023-02-03T11:02:05.862Z,1002.33
2023-02-03T11:03:05.936Z,1002.35
2023-02-03T11:04:06.853Z,1002.42
2023-02-03T11:05:05.842Z,1002.43
2023-02-03T11:06:05.889Z,1002.39
2023-02-03T11:07:05.897Z,1002.42
2023-02-03T11:08:05.816Z,1002.38
2023-02-03T11:09:05.912Z,1002.33
2023-02-03T11:10:05.807Z,1002.28
2023-02-03T11:11:05.808Z,1002.33
2023-02-03T11:12:05.840Z,1002.35
2023-02-03T11:13:05.848Z,1002.33
2023-02-03T11:14:05.768Z,1002.41
2023-02-03T11:15:05.758Z,1002.44
2023-02-03T11:16:05.793Z,1002.46
2023-02-03T11:17:05.747Z,1002.38
2023-02-03T11:18:05.746Z,1002.33
2023-02-03T11:19:05.807Z,1002.38
2023-02-03T11:20:05.720Z,1002.47
2023-02-03T11:21:05.731Z,1002.46
2023-02-03T11:22:05.737Z,1002.35
2023-02-03T11:23:05.722Z,1002.27
2023-02-03T11:24:05.761Z,1002.27
2023-02-03T11:25:05.858Z,1002.32
2023-02-03T11:26:05.763Z,1002.19
2023-02-03T11:27:05.693Z,1002.29
2023-02-03T11:28:05.716Z,1002.29
2023-02-03T11:29:05.674Z,1002.24
2023-02-03T11:30:05.668Z,1002.17
2023-02-03T11:31:05.800Z,1002.03
2023-02-03T11:32:05.756Z,1001.96
2023-02-03T11:33:05.616Z,1002.05
2023-02-03T11:34:05.629Z,1001.97
2023-02-03T11:35:05.637Z,1001.95
2023-02-03T11:36:05.641Z,1001.88
2023-02-03T11:37:05.695Z,1001.86
2023-02-03T11:38:05.585Z,1001.83
2023-02-03T11:39:05.585Z,1001.83
2023-02-03T11:40:05.638Z,1001.83
2023-02-03T11:41:05.631Z,1001.79
2023-02-03T11:42:05.560Z,1001.75
2023-02-03T11:43:06.001Z,1001.69
2023-02-03T11:44:05.569Z,1001.78
2023-02-03T11:45:05.584Z,1001.66
2023-02-03T11:46:05.631Z,1001.71
2023-02-03T11:47:05.529Z,1001.75
2023-02-03T11:48:05.526Z,1001.77
2023-02-03T11:49:05.608Z,1001.67
2023-02-03T11:50:05.513Z,1001.72
2023-02-03T11:51:05.555Z,1001.78
2023-02-03T11:52:05.529Z,1001.77
2023-02-03T11:53:05.491Z,1001.93
2023-02-03T11:54:05.479Z,1002.01
2023-02-03T11:55:06.678Z,1001.98
2023-02-03T11:56:05.467Z,1001.97
2023-02-03T11:57:05.461Z,1001.86
2023-02-03T11:58:05.503Z,1001.85
2023-02-03T11:59:05.414Z,1001.93
2023-02-03T12:00:05.467Z,1001.89
2023-02-03T12:01:05.534Z,1001.91
2023-02-03T12:02:05.472Z,1001.89
2023-02-03T12:03:05.489Z,1001.91
2023-02-03T12:04:05.460Z,1002.03
2023-02-03T12:05:05.390Z,1002.00